Time;durP1;ratioP1;P1;durP2;ratioP2;P2;SDS_P1;SDS_P2;PMS_P1;PMS_P2;Temp;Humidity;BMP_temperature;BMP_pressure;BME280_temperature;BME280_humidity;BME280_pressure;Samples;Min_cycle;Max_cycle;Signal;HPM_P1;HPM_P2
2022/07/28 00:00:13;;;;;;;4.73;1.30;;;11.30;75.70;;;;;;5071020;28;20144;-66
2022/07/28 00:02:39;;;;;;;4.45;1.20;;;11.30;75.60;;;;;;5060257;28;20029;-66
2022/07/28 00:05:05;;;;;;;3.80;0.90;;;11.30;75.70;;;;;;5077422;28;20561;-66
2022/07/28 00:07:31;;;;;;;3.38;1.13;;;11.30;76.10;;;;;;5060516;28;20045;-66
2022/07/28 00:09:56;;;;;;;3.77;1.30;;;11.20;76.10;;;;;;5059928;28;20036;-66
2022/07/28 00:12:22;;;;;;;2.80;1.10;;;11.20;76.30;;;;;;5069284;28;20115;-66
2022/07/28 00:14:50;;;;;;;4.23;1.10;;;11.20;76.10;;;;;;5074554;28;20040;-66
2022/07/28 00:17:16;;;;;;;4.40;1.20;;;11.20;75.90;;;;;;5083908;28;20053;-66
2022/07/28 00:19:41;;;;;;;2.87;0.90;;;11.20;76.40;;;;;;5041079;28;20053;-66
2022/07/28 00:22:07;;;;;;;4.07;1.20;;;11.20;76.50;;;;;;5058227;28;20075;-66
2022/07/28 00:24:33;;;;;;;3.80;0.93;;;11.20;76.50;;;;;;5077426;28;20097;-66
2022/07/28 00:26:59;;;;;;;3.70;0.90;;;11.20;77.10;;;;;;5074559;28;20066;-66
2022/07/28 00:29:25;;;;;;;3.60;1.30;;;11.20;77.10;;;;;;5060704;28;20035;-66
2022/07/28 00:31:51;;;;;;;3.03;1.15;;;11.20;76.80;;;;;;5076790;28;20037;-66
2022/07/28 00:34:16;;;;;;;2.73;1.20;;;11.20;79.30;;;;;;5063740;28;20071;-66
2022/07/28 00:36:42;;;;;;;2.23;1.10;;;11.20;78.60;;;;;;5074178;28;20563;-66
2022/07/28 00:39:08;;;;;;;2.80;1.27;;;11.20;78.80;;;;;;5043804;28;20041;-66
2022/07/28 00:41:35;;;;;;;3.93;1.30;;;11.20;78.20;;;;;;5060566;28;20078;-66
2022/07/28 00:44:04;;;;;;;4.50;1.60;;;11.20;77.90;;;;;;5076934;28;20051;-66
2022/07/28 00:46:29;;;;;;;4.97;1.45;;;11.20;78.40;;;;;;5075738;28;20048;-66
2022/07/28 00:48:55;;;;;;;2.07;1.20;;;11.20;79.00;;;;;;5060343;28;20040;-66
2022/07/28 00:51:23;;;;;;;4.17;1.60;;;11.20;78.60;;;;;;5076530;28;20048;-66
2022/07/28 00:53:49;;;;;;;3.65;1.42;;;11.20;79.50;;;;;;5077005;28;20032;-66
2022/07/28 00:56:15;;;;;;;4.63;1.30;;;11.20;80.80;;;;;;5076451;28;20041;-67
2022/07/28 00:58:41;;;;;;;3.80;1.30;;;11.20;80.60;;;;;;5060433;28;20116;-66
2022/07/28 01:01:09;;;;;;;4.53;1.10;;;11.20;80.10;;;;;;5059829;28;20481;-66
2022/07/28 01:03:39;;;;;;;3.25;1.48;;;11.20;80.40;;;;;;5075964;28;20042;-66
2022/07/28 01:06:31;;;;;;;3.35;1.58;;;11.10;81.20;;;;;;5076697;28;20037;-66
2022/07/28 01:09:21;;;;;;;3.33;1.80;;;11.10;81.30;;;;;;5060306;28;20528;-66
2022/07/28 01:11:59;;;;;;;3.03;1.17;;;11.10;80.80;;;;;;5067004;28;20080;-66
2022/07/28 01:14:48;;;;;;;3.00;1.30;;;11.10;81.60;;;;;;5075880;28;20055;-66
2022/07/28 01:17:28;;;;;;;4.50;1.60;;;11.00;81.80;;;;;;5063005;28;20053;-66
2022/07/28 01:20:14;;;;;;;5.47;1.30;;;11.00;81.70;;;;;;5055210;28;20072;-66
2022/07/28 01:22:49;;;;;;;2.60;1.42;;;11.00;81.40;;;;;;5052801;28;20064;-66
2022/07/28 01:25:41;;;;;;;;;;;11.00;81.50;;;;;;5081164;28;20446;-66
2022/07/28 01:28:13;;;;;;;3.72;1.20;;;10.90;81.80;;;;;;5080281;28;19924;-66
2022/07/28 01:30:42;;;;;;;3.03;1.13;;;10.90;81.30;;;;;;5062976;28;20080;-66
2022/07/28 01:33:19;;;;;;;4.82;1.73;;;10.90;80.30;;;;;;5078285;28;20032;-66
2022/07/28 01:35:50;;;;;;;3.88;1.60;;;10.90;79.90;;;;;;5061922;28;20064;-66
2022/07/28 01:38:17;;;;;;;2.92;1.77;;;10.90;79.70;;;;;;5078203;28;20070;-66
2022/07/28 01:40:44;;;;;;;5.60;1.90;;;10.90;80.90;;;;;;5080444;28;20048;-66
2022/07/28 01:43:15;;;;;;;5.45;1.70;;;10.90;80.70;;;;;;5079817;28;20051;-66
2022/07/28 01:45:43;;;;;;;4.90;1.35;;;10.90;80.60;;;;;;5081564;28;20102;-66
2022/07/28 01:48:11;;;;;;;2.22;1.00;;;10.80;81.10;;;;;;5079833;28;20059;-66
2022/07/28 01:50:38;;;;;;;2.33;1.50;;;10.80;80.80;;;;;;5079432;28;20044;-66
2022/07/28 01:53:06;;;;;;;3.78;1.58;;;10.80;81.50;;;;;;5079709;28;20411;-66
2022/07/28 01:55:33;;;;;;;2.30;1.50;;;10.80;82.60;;;;;;5062851;28;20032;-66
2022/07/28 01:58:00;;;;;;;2.45;1.73;;;10.70;82.00;;;;;;5046836;28;20423;-66
2022/07/28 02:00:27;;;;;;;2.95;1.60;;;10.70;81.60;;;;;;5076719;28;20048;-66
2022/07/28 02:02:55;;;;;;;2.60;1.70;;;10.60;82.10;;;;;;5062536;28;20383;-66
2022/07/28 02:05:24;;;;;;;2.50;1.45;;;10.60;82.40;;;;;;5074359;28;20044;-66
2022/07/28 02:07:52;;;;;;;2.28;1.70;;;10.60;82.20;;;;;;5079134;28;20040;-66
2022/07/28 02:10:19;;;;;;;1.95;1.27;;;10.50;81.60;;;;;;5078538;28;20115;-67
2022/07/28 02:12:47;;;;;;;3.45;1.30;;;10.50;81.60;;;;;;5074189;28;20447;-66
2022/07/28 02:15:14;;;;;;;2.45;1.80;;;10.50;81.50;;;;;;5079775;28;20129;-66
2022/07/28 02:17:43;;;;;;;2.20;1.40;;;10.40;81.10;;;;;;5079201;28;20041;-66
2022/07/28 02:20:12;;;;;;;2.53;1.17;;;10.40;81.50;;;;;;5063530;28;20044;-66
2022/07/28 02:22:39;;;;;;;2.55;1.17;;;10.40;81.30;;;;;;5062249;28;20509;-66
2022/07/28 02:25:06;;;;;;;3.45;1.50;;;10.40;81.30;;;;;;5079436;28;20044;-67
2022/07/28 02:28:06;;;;;;;3.00;1.40;;;10.40;82.50;;;;;;5078202;28;20404;-66
2022/07/28 02:30:36;;;;;;;1.98;1.50;;;10.40;83.30;;;;;;5068308;28;20060;-66
2022/07/28 02:33:15;;;;;;;2.08;1.30;;;10.40;83.20;;;;;;5062599;28;20093;-66
2022/07/28 02:35:49;;;;;;;1.98;1.40;;;10.40;82.30;;;;;;5078707;28;20028;-66
2022/07/28 02:38:21;;;;;;;1.48;1.00;;;10.40;82.40;;;;;;5078027;28;20076;-66
2022/07/28 02:40:49;;;;;;;2.00;1.45;;;10.40;82.20;;;;;;5056441;28;20104;-66
2022/07/28 02:43:20;;;;;;;4.88;1.17;;;10.40;81.90;;;;;;5076942;28;20044;-66
2022/07/28 02:45:50;;;;;;;2.35;1.27;;;10.40;81.50;;;;;;5060077;28;20094;-66
2022/07/28 02:48:20;;;;;;;1.80;1.00;;;10.40;81.00;;;;;;5078622;28;20040;-66
2022/07/28 02:50:47;;;;;;;1.63;1.08;;;10.40;81.10;;;;;;5078346;28;20044;-66
2022/07/28 02:53:15;;;;;;;2.92;1.23;;;10.40;80.90;;;;;;5078387;28;20599;-66
2022/07/28 02:55:42;;;;;;;2.50;1.25;;;10.40;80.80;;;;;;5061561;28;20032;-66
2022/07/28 02:58:10;;;;;;;1.88;1.10;;;10.40;80.80;;;;;;5061422;28;20032;-66
2022/07/28 03:00:37;;;;;;;2.22;0.93;;;10.40;80.50;;;;;;5074582;28;20045;-66
2022/07/28 03:03:03;;;;;;;2.58;1.17;;;10.30;80.80;;;;;;5079102;28;20559;-66
2022/07/28 03:05:30;;;;;;;1.75;1.00;;;10.30;80.60;;;;;;5077464;28;20041;-66
2022/07/28 03:07:58;;;;;;;1.95;1.50;;;10.30;80.80;;;;;;5061660;28;20045;-66
2022/07/28 03:10:25;;;;;;;3.70;1.23;;;10.30;80.50;;;;;;5060146;28;20048;-66
2022/07/28 03:12:52;;;;;;;3.55;1.33;;;10.30;80.90;;;;;;5056296;28;20028;-66
2022/07/28 03:15:18;;;;;;;2.40;1.30;;;10.20;81.10;;;;;;5060864;28;20054;-66
2022/07/28 03:17:43;;;;;;;3.13;1.43;;;10.20;81.00;;;;;;5074214;28;20076;-66
2022/07/28 03:20:10;;;;;;;2.93;1.20;;;10.20;80.90;;;;;;5075746;28;20045;-66
2022/07/28 03:22:37;;;;;;;2.40;1.73;;;10.20;81.20;;;;;;5077869;28;20062;-66
2022/07/28 03:25:28;;;;;;;1.85;1.17;;;10.20;81.10;;;;;;5061273;28;20044;-66
2022/07/28 03:27:56;;;;;;;2.75;1.10;;;10.20;81.30;;;;;;5077883;28;20044;-66
2022/07/28 03:30:27;;;;;;;4.03;1.27;;;10.20;81.30;;;;;;5077670;28;20033;-66
2022/07/28 03:32:58;;;;;;;2.75;1.00;;;10.20;81.10;;;;;;5074581;28;20488;-66
2022/07/28 03:35:24;;;;;;;1.88;0.80;;;10.20;81.50;;;;;;5070885;28;20163;-66
2022/07/28 03:37:57;;;;;;;3.00;1.00;;;10.20;81.30;;;;;;5077330;28;20036;-66
2022/07/28 03:40:28;;;;;;;2.90;1.00;;;10.20;81.30;;;;;;5060622;28;20056;-66
2022/07/28 03:42:56;;;;;;;2.72;1.10;;;10.20;81.40;;;;;;5060538;28;20044;-66
2022/07/28 03:45:23;;;;;;;2.05;1.05;;;10.20;81.30;;;;;;5060749;28;20029;-66
2022/07/28 03:47:54;;;;;;;2.50;1.02;;;10.20;80.90;;;;;;5060517;28;20458;-66
2022/07/28 03:50:26;;;;;;;2.83;1.10;;;10.20;80.90;;;;;;5076864;28;20043;-66
2022/07/28 03:52:53;;;;;;;1.58;0.90;;;10.20;81.00;;;;;;5077383;28;20062;-66
2022/07/28 03:55:19;;;;;;;2.42;1.15;;;10.20;80.80;;;;;;5061041;28;20055;-67
2022/07/28 03:57:45;;;;;;;3.90;1.50;;;10.20;80.70;;;;;;5077012;28;20105;-66
2022/07/28 04:00:11;;;;;;;2.00;1.30;;;10.20;81.80;;;;;;5076910;28;20044;-66
2022/07/28 04:02:42;;;;;;;1.83;1.10;;;10.10;82.10;;;;;;5077194;28;20047;-66
2022/07/28 04:05:12;;;;;;;2.40;1.40;;;10.10;82.60;;;;;;5077885;28;20108;-66
2022/07/28 04:07:39;;;;;;;3.65;1.30;;;10.10;82.10;;;;;;5053322;28;20052;-66
2022/07/28 04:10:07;;;;;;;2.85;1.20;;;10.10;81.80;;;;;;5077740;28;20040;-66
2022/07/28 04:12:54;;;;;;;2.08;1.20;;;10.10;81.60;;;;;;5077845;28;20040;-66
2022/07/28 04:15:20;;;;;;;2.95;1.33;;;10.10;81.50;;;;;;5072654;28;20047;-66
2022/07/28 04:17:48;;;;;;;2.22;1.45;;;10.10;81.70;;;;;;5058152;28;20067;-66
2022/07/28 04:20:15;;;;;;;3.13;1.27;;;10.10;82.00;;;;;;5077551;28;20451;-66
2022/07/28 04:22:41;;;;;;;3.97;1.38;;;10.10;81.80;;;;;;5077695;28;20435;-66
2022/07/28 04:25:07;;;;;;;1.55;1.10;;;10.10;82.00;;;;;;5077409;28;20807;-66
2022/07/28 04:27:36;;;;;;;2.22;1.10;;;10.10;81.80;;;;;;5059963;28;20078;-66
2022/07/28 04:30:11;;;;;;;2.85;1.42;;;10.10;81.60;;;;;;5060236;28;20041;-66
2022/07/28 04:32:38;;;;;;;1.80;1.13;;;10.20;81.80;;;;;;5077747;28;20040;-66
2022/07/28 04:35:05;;;;;;;2.63;1.10;;;10.20;81.80;;;;;;5078098;28;20153;-66
2022/07/28 04:37:31;;;;;;;2.78;1.10;;;10.20;82.40;;;;;;5072705;28;20060;-66
2022/07/28 04:39:56;;;;;;;4.17;1.67;;;10.30;82.70;;;;;;5060193;28;20047;-66
2022/07/28 04:42:22;;;;;;;2.47;1.63;;;10.40;82.70;;;;;;5074596;28;20515;-66
2022/07/28 04:44:48;;;;;;;2.43;1.57;;;10.40;83.30;;;;;;5043838;28;20517;-66
2022/07/28 04:47:14;;;;;;;2.87;1.60;;;10.50;82.90;;;;;;5059957;28;20610;-66
2022/07/28 04:49:40;;;;;;;3.20;1.40;;;10.50;83.70;;;;;;5078782;28;20254;-66
2022/07/28 04:52:07;;;;;;;2.17;1.33;;;10.50;84.50;;;;;;5081110;28;20037;-66
2022/07/28 04:54:33;;;;;;;3.50;1.67;;;10.60;84.30;;;;;;5063754;28;20342;-66
2022/07/28 04:56:59;;;;;;;2.65;1.60;;;10.60;84.20;;;;;;5077663;28;20409;-66
2022/07/28 04:59:25;;;;;;;2.50;1.70;;;10.80;84.50;;;;;;5063813;28;20044;-66
2022/07/28 05:01:51;;;;;;;2.75;1.67;;;11.30;85.20;;;;;;5080252;28;20044;-67
2022/07/28 05:04:18;;;;;;;2.90;1.35;;;11.90;84.10;;;;;;5043731;28;20072;-66
2022/07/28 05:06:44;;;;;;;2.35;1.48;;;12.40;82.80;;;;;;5079196;28;20181;-66
2022/07/28 05:09:09;;;;;;;2.97;1.20;;;12.70;82.30;;;;;;5075531;28;20494;-67
2022/07/28 05:11:35;;;;;;;3.40;1.30;;;13.20;81.30;;;;;;5062916;28;20051;-67
2022/07/28 05:14:01;;;;;;;1.83;1.40;;;13.60;80.20;;;;;;5079396;28;20066;-66
2022/07/28 05:16:27;;;;;;;2.00;1.40;;;14.40;79.90;;;;;;5046502;28;20108;-66
2022/07/28 05:18:52;;;;;;;1.63;1.07;;;15.50;78.20;;;;;;5077925;28;20051;-67
2022/07/28 05:21:18;;;;;;;2.20;1.20;;;16.40;74.90;;;;;;5063178;28;20135;-67
2022/07/28 05:23:44;;;;;;;3.03;1.50;;;17.30;72.40;;;;;;5063044;28;20029;-67
2022/07/28 05:26:09;;;;;;;1.80;1.40;;;18.00;71.10;;;;;;5079833;28;20043;-67
2022/07/28 05:28:35;;;;;;;2.10;1.30;;;18.20;69.30;;;;;;5063108;28;20045;-67
2022/07/28 05:31:01;;;;;;;2.87;1.40;;;18.50;69.30;;;;;;5063843;28;20044;-67
2022/07/28 05:33:27;;;;;;;3.03;1.60;;;18.80;68.30;;;;;;5080077;28;20045;-67
2022/07/28 05:35:58;;;;;;;1.67;1.40;;;18.70;68.00;;;;;;5079925;28;20290;-67
2022/07/28 05:38:25;;;;;;;3.10;1.50;;;19.10;67.20;;;;;;5079592;28;20056;-67
2022/07/28 05:40:51;;;;;;;2.93;1.37;;;19.70;66.10;;;;;;5063609;28;20289;-67
2022/07/28 05:43:17;;;;;;;1.83;1.07;;;20.10;65.00;;;;;;5079196;28;20384;-67
2022/07/28 05:45:43;;;;;;;2.20;1.23;;;20.20;64.10;;;;;;5080537;28;20298;-67
2022/07/28 05:48:08;;;;;;;3.97;1.00;;;20.10;63.20;;;;;;5080524;28;20063;-67
2022/07/28 05:50:35;;;;;;;2.07;1.03;;;19.70;63.10;;;;;;5064286;28;20032;-67
2022/07/28 05:53:00;;;;;;;3.00;0.97;;;19.10;64.10;;;;;;5080213;28;20072;-67
2022/07/28 05:55:26;;;;;;;2.90;1.07;;;18.60;64.90;;;;;;5079717;28;20318;-67
2022/07/28 05:57:53;;;;;;;2.97;1.30;;;18.20;65.80;;;;;;5077403;28;20044;-66
2022/07/28 06:00:21;;;;;;;2.63;1.00;;;18.00;66.80;;;;;;5062761;28;20044;-66
2022/07/28 06:02:50;;;;;;;1.40;0.90;;;17.70;67.30;;;;;;5079870;28;20310;-66
2022/07/28 06:05:17;;;;;;;3.80;0.97;;;17.80;68.60;;;;;;5079743;28;20654;-66
2022/07/28 06:07:45;;;;;;;3.10;1.00;;;18.30;68.60;;;;;;5079701;28;20306;-66
2022/07/28 06:10:14;;;;;;;3.27;1.00;;;19.10;66.10;;;;;;5066269;28;20347;-66
2022/07/28 06:12:44;;;;;;;2.93;0.90;;;19.90;65.10;;;;;;5042511;28;20271;-66
2022/07/28 06:15:16;;;;;;;1.53;0.90;;;20.60;62.10;;;;;;5079584;28;20312;-67
2022/07/28 06:17:41;;;;;;;2.67;1.10;;;20.90;60.40;;;;;;5079083;28;20525;-67
2022/07/28 06:20:08;;;;;;;5.73;1.43;;;20.90;59.80;;;;;;5076183;28;20300;-67
2022/07/28 06:22:42;;;;;;;2.93;1.00;;;20.90;59.00;;;;;;5072275;28;20044;-67
2022/07/28 06:25:22;;;;;;;1.55;0.93;;;20.50;58.00;;;;;;5059053;28;20321;-67
2022/07/28 06:27:50;;;;;;;2.60;0.90;;;20.10;58.30;;;;;;5079605;28;20049;-67
2022/07/28 06:30:17;;;;;;;5.27;0.90;;;20.10;58.70;;;;;;5057207;28;20651;-67
2022/07/28 06:32:43;;;;;;;2.10;0.90;;;20.50;57.90;;;;;;5029592;28;20279;-67
2022/07/28 06:35:10;;;;;;;3.03;0.70;;;20.70;56.60;;;;;;5079042;28;20090;-68
2022/07/28 06:37:36;;;;;;;1.63;0.70;;;20.90;56.90;;;;;;5078364;28;20294;-68
2022/07/28 06:40:02;;;;;;;1.50;0.40;;;21.20;56.20;;;;;;5046461;28;20040;-67
2022/07/28 07:21:10;;;;;;;1.77;0.40;;;19.20;58.50;;;;;;5132090;27;20482;-67
2022/07/28 07:23:36;;;;;;;2.23;0.40;;;19.20;57.30;;;;;;5085562;28;20313;-67
2022/07/28 07:26:03;;;;;;;3.90;0.53;;;19.10;57.60;;;;;;5080414;28;20036;-67
2022/07/28 07:28:29;;;;;;;1.87;0.40;;;19.20;58.10;;;;;;5101697;28;20302;-67
2022/07/28 07:30:54;;;;;;;2.60;0.20;;;19.20;58.30;;;;;;5084685;28;20649;-67
2022/07/28 07:33:20;;;;;;;1.83;0.40;;;19.40;58.50;;;;;;5088141;28;20380;-67
2022/07/28 07:35:46;;;;;;;3.57;0.50;;;19.60;57.70;;;;;;5082525;28;20031;-67
2022/07/28 07:38:11;;;;;;;2.87;0.37;;;19.80;56.60;;;;;;5054235;28;20082;-67
2022/07/28 07:40:37;;;;;;;3.10;0.60;;;20.10;56.60;;;;;;5072220;28;20050;-67
2022/07/28 07:43:04;;;;;;;2.90;0.30;;;20.30;56.30;;;;;;5104257;28;20039;-68
2022/07/28 07:45:29;;;;;;;2.33;0.40;;;20.50;55.80;;;;;;5086857;28;20397;-68
2022/07/28 07:47:55;;;;;;;2.83;0.43;;;20.40;55.80;;;;;;5102125;28;20071;-68
2022/07/28 07:50:21;;;;;;;1.33;0.20;;;20.30;55.80;;;;;;5084127;28;20068;-68
2022/07/28 07:52:50;;;;;;;4.63;0.40;;;20.20;55.60;;;;;;5083556;28;20038;-68
2022/07/28 07:55:16;;;;;;;2.73;0.40;;;20.10;56.00;;;;;;5098151;28;20471;-68
2022/07/28 07:57:43;;;;;;;1.23;0.30;;;20.00;56.10;;;;;;5049928;28;20032;-68
2022/07/28 08:00:09;;;;;;;2.40;0.20;;;19.90;56.40;;;;;;5084607;28;20043;-67
2022/07/28 08:02:38;;;;;;;2.43;0.40;;;19.80;56.20;;;;;;5102215;28;20075;-67
2022/07/28 08:05:05;;;;;;;3.63;0.30;;;19.80;56.30;;;;;;5084774;28;20039;-68
2022/07/28 08:07:30;;;;;;;3.60;0.37;;;19.70;56.30;;;;;;5100648;28;20047;-68
2022/07/28 08:09:56;;;;;;;2.20;0.50;;;19.80;56.50;;;;;;5083163;28;20043;-68
2022/07/28 08:12:22;;;;;;;1.40;0.40;;;20.00;56.40;;;;;;5097999;28;20086;-68
2022/07/28 08:14:47;;;;;;;4.47;0.40;;;20.00;56.00;;;;;;5063362;28;20051;-68
2022/07/28 08:17:13;;;;;;;1.73;0.20;;;20.00;55.50;;;;;;5084234;28;20399;-68
2022/07/28 08:19:39;;;;;;;2.47;0.43;;;20.10;55.90;;;;;;5060532;28;20060;-67
2022/07/28 08:22:05;;;;;;;2.77;0.50;;;20.10;55.50;;;;;;5051301;28;20096;-67
2022/07/28 08:24:30;;;;;;;2.20;0.83;;;20.10;55.30;;;;;;5065309;28;20647;-67
2022/07/28 08:26:56;;;;;;;1.27;0.50;;;20.10;55.70;;;;;;5072131;28;20039;-67
2022/07/28 08:29:22;;;;;;;2.73;0.33;;;20.10;55.80;;;;;;5064917;28;20036;-67
2022/07/28 08:31:47;;;;;;;3.03;0.50;;;20.10;55.70;;;;;;5064770;28;20037;-67
2022/07/28 08:34:13;;;;;;;4.00;0.83;;;20.10;55.30;;;;;;5069961;28;20036;-67
2022/07/28 08:36:39;;;;;;;3.83;0.77;;;20.10;55.20;;;;;;5068485;28;20035;-67
2022/07/28 08:39:05;;;;;;;2.13;0.40;;;20.10;55.00;;;;;;5034068;28;20047;-67
2022/07/28 08:41:45;;;;;;;1.30;0.30;;;20.00;54.50;;;;;;5085221;28;20040;-67
2022/07/28 08:44:16;;;;;;;2.70;0.40;;;20.00;54.40;;;;;;5071197;28;20082;-67
2022/07/28 08:46:42;;;;;;;1.30;0.30;;;19.90;54.90;;;;;;5071910;28;20074;-67
2022/07/28 08:49:10;;;;;;;2.93;0.30;;;19.90;54.70;;;;;;5049549;28;20291;-67
2022/07/28 08:51:37;;;;;;;1.73;0.30;;;19.90;54.80;;;;;;5051614;28;20028;-67
2022/07/28 08:54:04;;;;;;;2.77;0.37;;;19.80;54.10;;;;;;5069895;28;20044;-67
2022/07/28 08:56:31;;;;;;;1.13;0.30;;;19.70;54.60;;;;;;5070468;28;20039;-67
2022/07/28 08:58:57;;;;;;;3.30;0.40;;;19.60;54.40;;;;;;5034771;28;20044;-67
2022/07/28 09:01:23;;;;;;;1.87;0.30;;;19.60;55.30;;;;;;5065786;28;20111;-67
2022/07/28 09:03:50;;;;;;;2.67;0.50;;;19.40;56.00;;;;;;5070613;28;20044;-67
2022/07/28 09:06:16;;;;;;;3.37;0.77;;;19.30;56.70;;;;;;5066878;28;20039;-67
2022/07/28 09:08:42;;;;;;;1.03;0.37;;;19.40;56.20;;;;;;5052171;28;20135;-67
2022/07/28 09:11:08;;;;;;;1.37;0.23;;;19.30;55.40;;;;;;5034905;28;20142;-67
2022/07/28 09:13:35;;;;;;;2.13;0.40;;;19.30;54.20;;;;;;5052994;28;20597;-67
2022/07/28 09:16:00;;;;;;;3.03;0.60;;;19.10;55.20;;;;;;5054843;28;20048;-67
2022/07/28 09:18:26;;;;;;;1.27;0.30;;;19.10;55.40;;;;;;5036727;28;20047;-67
2022/07/28 09:20:52;;;;;;;0.77;0.23;;;19.10;55.50;;;;;;5045810;28;20071;-67
2022/07/28 09:23:18;;;;;;;1.77;0.30;;;19.10;55.70;;;;;;5066050;28;20124;-67
2022/07/28 09:25:43;;;;;;;1.50;0.40;;;19.30;56.10;;;;;;5069771;28;20046;-67
2022/07/28 09:28:13;;;;;;;2.00;0.33;;;19.60;55.00;;;;;;5051244;28;20036;-67
2022/07/28 09:30:41;;;;;;;3.13;0.40;;;19.90;54.60;;;;;;5048791;28;20048;-67
2022/07/28 09:33:18;;;;;;;2.77;0.30;;;20.10;54.30;;;;;;5069299;28;20036;-67
2022/07/28 09:35:53;;;;;;;1.43;0.40;;;20.30;53.70;;;;;;5053326;28;20040;-67
2022/07/28 09:38:23;;;;;;;1.17;0.23;;;20.50;52.80;;;;;;5067476;28;20082;-67
2022/07/28 09:41:05;;;;;;;3.17;0.50;;;20.80;52.20;;;;;;5070430;28;20512;-67
2022/07/28 09:43:35;;;;;;;2.40;0.80;;;21.10;52.30;;;;;;5068602;28;20073;-67
2022/07/28 09:46:04;;;;;;;1.43;0.40;;;21.20;51.60;;;;;;5037494;28;20093;-67
2022/07/28 09:48:30;;;;;;;1.67;0.43;;;21.30;51.10;;;;;;5046702;28;20051;-67
2022/07/28 09:51:12;;;;;;;1.57;0.30;;;21.30;50.50;;;;;;5070217;28;20384;-67
2022/07/28 09:53:39;;;;;;;2.37;0.60;;;21.30;51.50;;;;;;5067174;28;20428;-67
2022/07/28 09:56:06;;;;;;;2.47;0.30;;;21.30;51.30;;;;;;5068767;28;20401;-67
2022/07/28 09:58:32;;;;;;;2.40;0.50;;;21.20;51.70;;;;;;5064988;28;20032;-67
2022/07/28 10:01:03;;;;;;;1.90;0.30;;;21.10;51.30;;;;;;5066643;28;20396;-67
2022/07/28 10:03:29;;;;;;;0.50;0.20;;;21.10;50.50;;;;;;5051906;28;20036;-67
2022/07/28 10:05:57;;;;;;;1.47;0.40;;;21.00;51.10;;;;;;5049199;28;20093;-67
2022/07/28 10:08:43;;;;;;;0.90;0.30;;;20.90;51.80;;;;;;5066154;28;20044;-67
2022/07/28 10:11:10;;;;;;;1.93;0.40;;;20.90;51.60;;;;;;5067035;28;20427;-67
2022/07/28 10:13:53;;;;;;;0.80;0.30;;;21.00;52.10;;;;;;5058091;28;20149;-67
2022/07/28 10:16:20;;;;;;;1.23;0.30;;;21.00;51.00;;;;;;5069203;28;20516;-67
2022/07/28 10:18:47;;;;;;;2.73;0.37;;;21.00;50.50;;;;;;5033396;28;20045;-67
2022/07/28 10:21:15;;;;;;;1.77;0.50;;;20.90;50.90;;;;;;5064054;28;20461;-67
2022/07/28 10:23:50;;;;;;;1.53;0.30;;;21.00;50.90;;;;;;5049903;28;20474;-67
2022/07/28 10:26:16;;;;;;;1.85;0.52;;;21.00;50.50;;;;;;5057246;28;20111;-67
2022/07/28 10:28:47;;;;;;;0.60;0.20;;;21.00;50.80;;;;;;5057194;28;20388;-67
2022/07/28 10:31:19;;;;;;;1.40;0.40;;;21.10;50.10;;;;;;5063385;28;20036;-67
2022/07/28 10:33:49;;;;;;;0.93;0.50;;;21.10;49.80;;;;;;5045077;28;20086;-67
2022/07/28 10:36:21;;;;;;;2.53;0.40;;;21.30;49.60;;;;;;5068574;28;20043;-67
2022/07/28 10:38:47;;;;;;;2.27;0.40;;;21.50;50.60;;;;;;5068376;28;20446;-67
2022/07/28 10:41:15;;;;;;;2.60;0.53;;;21.70;49.80;;;;;;5048820;28;20067;-67
2022/07/28 10:43:43;;;;;;;1.43;0.30;;;21.60;50.10;;;;;;5069174;28;20237;-67
2022/07/28 10:46:09;;;;;;;1.20;0.40;;;21.60;50.00;;;;;;5035881;28;20036;-67
2022/07/28 10:48:39;;;;;;;2.33;0.50;;;21.40;49.90;;;;;;5065085;28;20043;-67
2022/07/28 10:51:05;;;;;;;1.33;0.40;;;21.30;50.00;;;;;;5046335;28;20503;-67
2022/07/28 10:53:42;;;;;;;3.13;0.43;;;21.10;50.60;;;;;;5069137;28;20035;-67
2022/07/28 10:56:14;;;;;;;3.40;1.07;;;21.10;50.50;;;;;;5066417;28;20032;-67
2022/07/28 10:58:55;;;;;;;4.77;0.80;;;20.90;50.50;;;;;;5064446;28;20036;-67
2022/07/28 11:01:40;;;;;;;1.20;0.47;;;20.90;50.40;;;;;;5064269;28;20470;-67
2022/07/28 11:04:06;;;;;;;1.70;0.30;;;20.90;50.80;;;;;;5063300;28;20085;-67
2022/07/28 11:06:38;;;;;;;1.63;0.50;;;20.80;50.40;;;;;;5068179;28;20044;-67
2022/07/28 11:09:16;;;;;;;1.23;0.47;;;20.70;51.30;;;;;;5064682;28;20079;-67
2022/07/28 11:11:48;;;;;;;2.90;0.57;;;20.70;51.50;;;;;;5067076;28;20484;-67
2022/07/28 11:14:24;;;;;;;3.63;0.60;;;20.80;51.50;;;;;;5045446;28;20520;-67
2022/07/28 11:16:59;;;;;;;3.30;0.67;;;20.90;51.00;;;;;;5046753;28;20044;-67
2022/07/28 11:19:25;;;;;;;;;;;21.00;51.60;;;;;;5059779;28;20048;-67
2022/07/28 11:22:17;;;;;;;3.07;0.70;;;21.20;50.20;;;;;;5061693;28;19923;-67
2022/07/28 11:25:01;;;;;;;2.10;0.50;;;21.30;50.20;;;;;;5063560;28;20084;-67
2022/07/28 11:27:42;;;;;;;1.33;0.40;;;21.20;50.80;;;;;;5058408;28;20041;-67
2022/07/28 11:30:25;;;;;;;1.50;0.43;;;21.30;50.40;;;;;;5054415;28;20463;-67
2022/07/28 11:32:52;;;;;;;3.77;0.57;;;21.20;50.20;;;;;;5057326;28;20063;-67
2022/07/28 11:35:22;;;;;;;7.97;0.60;;;21.20;50.20;;;;;;5061087;28;20108;-67
2022/07/28 11:38:00;;;;;;;0.57;0.30;;;21.20;50.90;;;;;;5043322;28;20039;-67
2022/07/28 11:40:42;;;;;;;0.70;0.40;;;21.30;50.50;;;;;;5061239;28;20044;-67
2022/07/28 11:43:20;;;;;;;1.47;0.30;;;21.30;49.90;;;;;;5051547;28;20044;-67
2022/07/28 11:45:47;;;;;;;2.60;0.60;;;21.30;50.60;;;;;;5069783;28;20046;-67
2022/07/28 11:48:20;;;;;;;2.03;0.50;;;21.30;50.40;;;;;;5065667;28;20044;-67
2022/07/28 11:51:10;;;;;;;3.40;0.83;;;21.10;51.20;;;;;;5051041;28;20067;-67
2022/07/28 11:53:53;;;;;;;2.60;0.50;;;21.10;49.70;;;;;;5058543;28;20095;-67
2022/07/28 11:56:24;;;;;;;4.97;0.60;;;20.90;49.80;;;;;;5060609;28;20341;-67
2022/07/28 11:58:58;;;;;;;2.40;0.80;;;20.60;51.30;;;;;;5069855;28;20099;-67
2022/07/28 12:01:24;;;;;;;1.23;0.60;;;20.50;52.00;;;;;;5061651;28;20075;-67
2022/07/28 12:03:52;;;;;;;1.30;0.33;;;20.50;51.80;;;;;;5054297;28;20116;-67
2022/07/28 12:06:19;;;;;;;2.80;0.67;;;20.30;52.30;;;;;;5067864;28;20042;-67
2022/07/28 12:08:55;;;;;;;0.93;0.60;;;20.20;53.00;;;;;;5069199;28;20101;-67
2022/07/28 12:11:25;;;;;;;2.17;0.77;;;20.20;52.70;;;;;;5069078;28;20426;-67
2022/07/28 12:14:02;;;;;;;2.87;0.60;;;20.20;52.40;;;;;;5060249;28;20336;-67
2022/07/28 12:16:33;;;;;;;1.50;0.40;;;20.10;53.00;;;;;;5057735;28;20036;-67
2022/07/28 12:19:00;;;;;;;1.43;0.73;;;20.00;53.10;;;;;;5064466;28;20040;-67
2022/07/28 12:21:45;;;;;;;2.43;0.97;;;20.10;53.10;;;;;;5082049;28;20550;-67
2022/07/28 12:24:13;;;;;;;1.13;0.52;;;20.10;53.10;;;;;;5060105;28;20515;-67
2022/07/28 12:26:40;;;;;;;3.13;0.50;;;20.20;52.50;;;;;;5059262;28;20044;-67
2022/07/28 12:29:09;;;;;;;2.73;0.70;;;20.20;52.90;;;;;;5064811;28;20040;-67
2022/07/28 12:31:36;;;;;;;1.90;0.40;;;20.30;52.40;;;;;;5065614;28;20040;-67
2022/07/28 12:34:08;;;;;;;0.93;0.53;;;20.50;52.40;;;;;;5065916;28;20043;-67
2022/07/28 12:36:36;;;;;;;2.03;0.67;;;20.70;51.70;;;;;;5043508;28;20113;-67
2022/07/28 12:39:04;;;;;;;2.10;0.50;;;20.80;50.40;;;;;;5062989;28;20048;-67
2022/07/28 12:41:34;;;;;;;3.60;0.50;;;20.80;50.40;;;;;;5070502;28;20044;-67
2022/07/28 12:44:02;;;;;;;1.17;0.30;;;20.80;50.80;;;;;;5067150;28;20037;-67
2022/07/28 12:46:28;;;;;;;2.47;0.33;;;21.00;50.80;;;;;;5044279;28;20049;-67
2022/07/28 12:48:56;;;;;;;2.70;1.00;;;21.10;50.10;;;;;;5054011;28;20145;-67
2022/07/28 12:51:39;;;;;;;1.47;0.40;;;21.40;50.00;;;;;;5060445;28;20428;-67
2022/07/28 12:54:07;;;;;;;1.00;0.37;;;21.60;49.90;;;;;;5069958;28;20443;-67
2022/07/28 12:56:47;;;;;;;0.97;0.30;;;21.90;49.40;;;;;;5070537;28;20145;-67
2022/07/28 12:59:13;;;;;;;2.10;0.30;;;22.10;48.50;;;;;;5052057;28;20036;-67
2022/07/28 13:01:54;;;;;;;1.93;0.30;;;22.30;47.30;;;;;;5058873;28;20396;-67
2022/07/28 13:04:38;;;;;;;1.10;0.33;;;22.30;46.70;;;;;;5060295;28;20052;-67
2022/07/28 13:07:08;;;;;;;2.33;0.30;;;22.30;47.00;;;;;;5062310;28;20501;-67
2022/07/28 13:09:44;;;;;;;1.90;0.40;;;22.30;47.20;;;;;;5047150;28;20170;-67
2022/07/28 13:12:21;;;;;;;3.53;0.50;;;22.50;46.20;;;;;;5067215;28;20040;-67
2022/07/28 13:14:51;;;;;;;0.70;0.20;;;22.70;46.20;;;;;;5062734;28;20069;-67
2022/07/28 13:17:18;;;;;;;1.63;0.40;;;22.70;45.50;;;;;;5056485;28;20044;-67
2022/07/28 13:19:47;;;;;;;0.83;0.30;;;22.90;45.40;;;;;;5066162;28;20503;-67
2022/07/28 13:22:27;;;;;;;1.97;0.70;;;22.90;45.70;;;;;;5063353;28;20067;-67
2022/07/28 13:24:52;;;;;;;2.13;0.30;;;22.90;45.60;;;;;;5066132;28;20047;-67
2022/07/28 13:27:18;;;;;;;1.40;0.73;;;22.70;46.60;;;;;;5055227;28;20040;-67
2022/07/28 13:29:44;;;;;;;1.43;0.30;;;22.90;46.60;;;;;;5064081;28;20047;-67
2022/07/28 13:32:10;;;;;;;1.53;0.30;;;23.00;46.20;;;;;;5066939;28;20478;-67
2022/07/28 13:34:36;;;;;;;1.93;0.60;;;23.00;45.70;;;;;;5050138;28;20043;-67
2022/07/28 13:37:02;;;;;;;1.83;0.23;;;23.00;45.10;;;;;;5062075;28;20577;-67